Grimstead, Virginia
Current Conditions -  °F | °C
As of 6:55 AM on Sunday 21 Dec 2014 (Local Time) from KW75 Reporting Station
Overcast Overcast  
Wind Chill: 31°   Ceiling: 7000
Heat Index: 35°   Visibility: 10mi
Dew Point: 28°   Wind: 5mph
Humidity: 75%   Direction: 360°N
Pressure: 30.32"   Gusts: NA
Location:  37.5°N, 76.3°W
Report Text: KW75 211155Z AUTO 36004KT 10SM OVC070 02/M02 A3032 RMK AO1 T00171023 10018 20005
Loading
Personal Weather Stations






























Interactive Weather Map New forecast layout! Learn more

10-Day Weather Forecast

Advertisements
Track Severe Weather on mobile